Time;durP1;ratioP1;P1;durP2;ratioP2;P2;SDS_P1;SDS_P2;PMS_P1;PMS_P2;Temp;Humidity;BMP_temperature;BMP_pressure;BME280_temperature;BME280_humidity;BME280_pressure;Samples;Min_cycle;Max_cycle;Signal;HPM_P1;HPM_P2
2024/02/28 00:00:30;;;;;;;35.97;13.98;;;;;;;;;;5055167;28;20508;-69
2024/02/28 00:03:16;;;;;;;45.80;15.38;;;;;;;;;;5055383;28;20561;-70
2024/02/28 00:06:02;;;;;;;34.97;13.68;;;;;;;;;;5055220;28;20029;-69
2024/02/28 00:08:47;;;;;;;35.08;12.88;;;;;;;;;;5055659;28;20378;-70
2024/02/28 00:11:33;;;;;;;42.65;13.77;;;;;;;;;;5056907;28;20476;-69
2024/02/28 00:14:19;;;;;;;39.80;15.23;;;;;;;;;;5056311;28;20025;-69
2024/02/28 00:17:04;;;;;;;37.88;13.00;;;;;;;;;;5056187;28;20031;-69
2024/02/28 00:19:50;;;;;;;38.42;11.95;;;;;;;;;;5041258;28;20454;-69
2024/02/28 00:22:39;;;;;;;34.50;12.60;;;;;;;;;;5055520;28;20021;-69
2024/02/28 00:25:24;;;;;;;34.47;12.63;;;;;;;;;;5042158;28;20025;-69
2024/02/28 00:28:10;;;;;;;38.35;13.95;;;;;;;;;;5054397;28;20506;-69
2024/02/28 00:30:56;;;;;;;27.48;11.45;;;;;;;;;;5041125;28;20048;-69
2024/02/28 00:33:41;;;;;;;31.45;12.32;;;;;;;;;;5041470;28;20017;-69
2024/02/28 00:36:27;;;;;;;33.28;12.50;;;;;;;;;;5055112;28;20064;-69
2024/02/28 00:39:12;;;;;;;35.45;13.25;;;;;;;;;;5055880;28;20490;-69
2024/02/28 00:41:58;;;;;;;35.83;12.27;;;;;;;;;;5054050;28;20383;-69
2024/02/28 00:44:44;;;;;;;35.00;14.18;;;;;;;;;;5054756;28;20021;-70
2024/02/28 00:47:29;;;;;;;36.30;13.25;;;;;;;;;;5053995;28;20032;-70
2024/02/28 00:50:15;;;;;;;34.03;14.20;;;;;;;;;;5040502;28;20029;-70
2024/02/28 00:53:02;;;;;;;36.08;14.20;;;;;;;;;;5055547;28;20082;-69
2024/02/28 00:55:48;;;;;;;33.00;11.68;;;;;;;;;;5056031;28;20025;-70
2024/02/28 00:58:33;;;;;;;33.20;13.40;;;;;;;;;;5054289;28;20032;-69
2024/02/28 01:01:19;;;;;;;36.88;14.75;;;;;;;;;;5040156;28;20020;-69
2024/02/28 01:04:05;;;;;;;35.65;12.32;;;;;;;;;;5054624;28;20060;-70
2024/02/28 01:06:50;;;;;;;37.92;13.27;;;;;;;;;;5053408;28;20493;-70
2024/02/28 01:09:36;;;;;;;35.22;12.18;;;;;;;;;;5054079;28;20401;-69
2024/02/28 01:12:21;;;;;;;32.92;12.63;;;;;;;;;;5053945;28;20052;-70
2024/02/28 01:15:07;;;;;;;36.45;14.40;;;;;;;;;;5055094;28;20029;-69
2024/02/28 01:17:53;;;;;;;38.22;13.65;;;;;;;;;;5054367;28;20082;-69
2024/02/28 01:20:39;;;;;;;31.33;12.27;;;;;;;;;;5054635;28;20040;-69
2024/02/28 01:23:24;;;;;;;38.92;14.25;;;;;;;;;;5053880;28;20489;-70
2024/02/28 01:26:10;;;;;;;37.25;11.57;;;;;;;;;;5053206;28;20416;-69
2024/02/28 01:28:55;;;;;;;35.42;13.90;;;;;;;;;;5053873;28;20021;-69
2024/02/28 01:31:41;;;;;;;31.83;12.93;;;;;;;;;;5054104;28;20021;-69
2024/02/28 01:34:27;;;;;;;33.75;13.80;;;;;;;;;;5054845;28;20024;-70
2024/02/28 01:37:12;;;;;;;33.15;12.93;;;;;;;;;;5053805;28;20103;-69
2024/02/28 01:39:58;;;;;;;41.60;13.98;;;;;;;;;;5053381;28;20397;-69
2024/02/28 01:42:44;;;;;;;38.17;13.60;;;;;;;;;;5053426;28;20025;-69
2024/02/28 01:45:29;;;;;;;34.83;13.10;;;;;;;;;;5053135;28;20032;-69
2024/02/28 01:48:15;;;;;;;36.95;13.65;;;;;;;;;;5054154;28;20029;-69
2024/02/28 01:51:02;;;;;;;35.75;11.98;;;;;;;;;;5039259;28;20036;-69
2024/02/28 01:53:48;;;;;;;39.55;15.63;;;;;;;;;;5039161;28;20481;-69
2024/02/28 01:56:34;;;;;;;34.28;12.20;;;;;;;;;;5038607;28;20397;-70
2024/02/28 01:59:20;;;;;;;40.10;14.43;;;;;;;;;;5054567;28;20103;-69
2024/02/28 02:02:06;;;;;;;39.85;14.50;;;;;;;;;;5039703;28;20025;-69
2024/02/28 02:04:52;;;;;;;35.60;12.75;;;;;;;;;;5054406;28;20028;-70
2024/02/28 02:07:39;;;;;;;35.75;12.65;;;;;;;;;;5053634;28;20108;-69
2024/02/28 02:10:25;;;;;;;34.75;12.93;;;;;;;;;;5039766;28;20027;-70
2024/02/28 02:13:11;;;;;;;41.90;14.65;;;;;;;;;;5053993;28;20028;-70
2024/02/28 02:15:56;;;;;;;39.78;13.70;;;;;;;;;;5052104;28;20482;-69
2024/02/28 02:18:42;;;;;;;36.30;13.63;;;;;;;;;;5052859;28;20056;-69
2024/02/28 02:21:36;;;;;;;39.30;14.68;;;;;;;;;;5039151;28;20025;-69
2024/02/28 02:24:22;;;;;;;37.90;13.00;;;;;;;;;;5038735;28;20021;-69
2024/02/28 02:27:08;;;;;;;29.08;10.48;;;;;;;;;;5053295;28;20473;-70
2024/02/28 02:29:53;;;;;;;34.33;13.13;;;;;;;;;;5053033;28;20040;-69
2024/02/28 02:32:39;;;;;;;36.60;15.05;;;;;;;;;;5052777;28;20029;-69
2024/02/28 02:35:25;;;;;;;38.60;13.43;;;;;;;;;;5053699;28;20017;-70
2024/02/28 02:38:10;;;;;;;28.05;10.98;;;;;;;;;;5052214;28;20400;-69
2024/02/28 02:40:56;;;;;;;36.72;14.63;;;;;;;;;;5052895;28;20021;-69
2024/02/28 02:43:42;;;;;;;39.22;13.27;;;;;;;;;;5037599;28;20551;-69
2024/02/28 02:46:27;;;;;;;35.47;12.38;;;;;;;;;;5052264;28;20464;-70
2024/02/28 02:49:13;;;;;;;37.65;13.65;;;;;;;;;;5052588;28;20025;-70
2024/02/28 02:51:58;;;;;;;33.53;13.52;;;;;;;;;;5053911;28;20017;-69
2024/02/28 02:54:44;;;;;;;35.60;13.32;;;;;;;;;;5053579;28;20071;-69
2024/02/28 02:57:31;;;;;;;40.00;13.98;;;;;;;;;;5052592;28;20138;-69
2024/02/28 03:00:17;;;;;;;38.42;11.73;;;;;;;;;;5025307;28;20405;-70
2024/02/28 03:03:03;;;;;;;34.35;11.77;;;;;;;;;;5053207;28;20025;-69
2024/02/28 03:05:49;;;;;;;32.33;12.60;;;;;;;;;;5054110;28;20111;-69
2024/02/28 03:08:34;;;;;;;48.42;14.35;;;;;;;;;;5049289;28;20565;-70
2024/02/28 03:11:20;;;;;;;42.30;13.27;;;;;;;;;;5043040;28;20025;-69
2024/02/28 03:14:06;;;;;;;36.78;13.98;;;;;;;;;;5049563;28;20021;-69
2024/02/28 03:16:51;;;;;;;36.85;12.73;;;;;;;;;;5044202;28;20021;-69
2024/02/28 03:19:37;;;;;;;34.40;12.95;;;;;;;;;;5055921;28;20056;-69
2024/02/28 03:22:23;;;;;;;33.45;14.05;;;;;;;;;;5053965;28;20025;-69
2024/02/28 03:25:09;;;;;;;39.33;14.45;;;;;;;;;;5036854;28;20119;-69
2024/02/28 03:27:55;;;;;;;43.05;15.48;;;;;;;;;;5036252;28;20041;-69
2024/02/28 03:30:40;;;;;;;34.38;12.65;;;;;;;;;;5037848;28;20022;-69
2024/02/28 03:33:26;;;;;;;38.83;14.70;;;;;;;;;;5037178;28;20521;-70
2024/02/28 03:36:11;;;;;;;32.95;11.50;;;;;;;;;;5037354;28;20382;-69
2024/02/28 03:38:57;;;;;;;32.30;13.05;;;;;;;;;;5037334;28;20029;-69
2024/02/28 03:41:43;;;;;;;40.13;13.40;;;;;;;;;;5036972;28;20083;-69
2024/02/28 03:44:28;;;;;;;37.08;12.27;;;;;;;;;;5037133;28;20052;-69
2024/02/28 03:47:14;;;;;;;36.60;12.13;;;;;;;;;;5035845;28;20080;-69
2024/02/28 03:50:02;;;;;;;35.28;14.07;;;;;;;;;;5021740;28;20065;-69
2024/02/28 03:52:47;;;;;;;38.85;14.93;;;;;;;;;;5037378;28;20486;-69
2024/02/28 03:55:33;;;;;;;33.08;12.93;;;;;;;;;;5037041;28;20029;-69
2024/02/28 03:58:19;;;;;;;35.60;12.50;;;;;;;;;;5022100;28;20021;-69
2024/02/28 04:01:04;;;;;;;39.33;13.98;;;;;;;;;;5036653;28;20486;-69
2024/02/28 04:03:50;;;;;;;35.55;13.05;;;;;;;;;;5037076;28;20048;-69
2024/02/28 04:06:35;;;;;;;37.88;14.27;;;;;;;;;;5036624;28;20064;-69
2024/02/28 04:09:21;;;;;;;41.75;13.40;;;;;;;;;;5034898;28;20029;-69
2024/02/28 04:12:07;;;;;;;36.80;13.15;;;;;;;;;;5036348;28;20056;-69
2024/02/28 04:14:53;;;;;;;31.35;12.05;;;;;;;;;;5036418;28;20104;-70
2024/02/28 04:17:39;;;;;;;43.35;13.70;;;;;;;;;;5035679;28;20025;-70
2024/02/28 04:20:25;;;;;;;41.83;15.60;;;;;;;;;;5021922;28;20044;-69
2024/02/28 04:23:10;;;;;;;45.05;15.25;;;;;;;;;;5036934;28;20025;-69
2024/02/28 04:25:56;;;;;;;36.65;13.27;;;;;;;;;;5035913;28;20418;-69
2024/02/28 04:28:42;;;;;;;39.53;11.73;;;;;;;;;;5035984;28;20433;-69
2024/02/28 04:31:27;;;;;;;41.00;14.40;;;;;;;;;;5034119;28;20021;-69
2024/02/28 04:34:13;;;;;;;35.00;13.88;;;;;;;;;;5035802;28;20049;-69
2024/02/28 04:36:59;;;;;;;41.20;13.93;;;;;;;;;;5036286;28;20022;-69
2024/02/28 04:39:45;;;;;;;35.17;13.85;;;;;;;;;;5034086;28;20143;-69
2024/02/28 04:42:30;;;;;;;39.65;12.85;;;;;;;;;;5036410;28;20036;-69
2024/02/28 04:45:16;;;;;;;42.20;14.18;;;;;;;;;;5035971;28;20021;-69
2024/02/28 04:48:01;;;;;;;42.38;14.20;;;;;;;;;;5035744;28;20072;-69
2024/02/28 04:50:47;;;;;;;37.85;15.00;;;;;;;;;;5042857;23;20076;-71
2024/02/28 04:53:33;;;;;;;40.42;15.23;;;;;;;;;;5028581;28;20096;-71
2024/02/28 04:56:18;;;;;;;34.53;13.95;;;;;;;;;;5016934;28;20403;-71
2024/02/28 04:59:04;;;;;;;34.15;12.82;;;;;;;;;;5015395;28;20018;-71
2024/02/28 05:01:49;;;;;;;48.38;16.13;;;;;;;;;;5001167;28;20036;-71
2024/02/28 05:04:35;;;;;;;37.60;14.40;;;;;;;;;;5014953;28;20033;-71
2024/02/28 05:07:22;;;;;;;31.83;12.98;;;;;;;;;;5002006;28;20108;-71
2024/02/28 05:10:08;;;;;;;44.90;14.70;;;;;;;;;;5001369;28;20511;-71
2024/02/28 05:12:53;;;;;;;39.03;13.60;;;;;;;;;;5015768;28;20029;-71
2024/02/28 05:15:39;;;;;;;40.33;16.38;;;;;;;;;;5016112;28;20025;-71
2024/02/28 05:18:25;;;;;;;42.03;15.20;;;;;;;;;;5001536;28;20050;-70
2024/02/28 05:21:11;;;;;;;40.22;16.08;;;;;;;;;;5015281;28;20119;-70
2024/02/28 05:23:56;;;;;;;37.53;15.95;;;;;;;;;;5000607;28;20025;-70
2024/02/28 05:26:42;;;;;;;41.47;15.90;;;;;;;;;;5015377;28;20058;-70
2024/02/28 05:29:28;;;;;;;41.55;13.95;;;;;;;;;;5014042;28;20029;-71
2024/02/28 05:32:13;;;;;;;44.50;15.73;;;;;;;;;;5015273;28;20018;-70
2024/02/28 05:34:59;;;;;;;43.72;13.13;;;;;;;;;;5000727;28;20415;-71
2024/02/28 05:37:46;;;;;;;48.85;16.20;;;;;;;;;;5015061;28;20080;-70
2024/02/28 05:40:32;;;;;;;42.83;14.38;;;;;;;;;;5015160;28;20084;-71
2024/02/28 05:43:17;;;;;;;40.88;17.17;;;;;;;;;;5015172;28;20022;-70
2024/02/28 05:46:03;;;;;;;39.28;16.52;;;;;;;;;;5015029;28;20108;-71
2024/02/28 05:48:49;;;;;;;41.58;15.43;;;;;;;;;;5014546;28;20022;-71
2024/02/28 05:51:35;;;;;;;45.20;15.95;;;;;;;;;;5001379;28;20030;-70
2024/02/28 05:54:21;;;;;;;38.95;13.23;;;;;;;;;;5015748;28;20431;-70
2024/02/28 05:57:07;;;;;;;42.42;16.35;;;;;;;;;;5014542;28;20033;-70
2024/02/28 05:59:52;;;;;;;50.70;18.10;;;;;;;;;;5014699;28;20080;-70
2024/02/28 06:02:38;;;;;;;53.00;17.60;;;;;;;;;;5014836;28;20215;-70
2024/02/28 06:05:23;;;;;;;47.70;16.85;;;;;;;;;;5014618;28;20018;-70
2024/02/28 06:08:09;;;;;;;50.83;16.35;;;;;;;;;;5014737;28;20427;-70
2024/02/28 06:10:55;;;;;;;46.75;18.65;;;;;;;;;;5014853;28;20026;-70
2024/02/28 06:13:41;;;;;;;52.20;17.65;;;;;;;;;;5013767;28;20025;-71
2024/02/28 06:16:26;;;;;;;59.90;20.67;;;;;;;;;;5014851;28;20065;-70
2024/02/28 06:19:12;;;;;;;57.33;19.38;;;;;;;;;;5014738;28;20026;-70
2024/02/28 06:21:57;;;;;;;62.03;18.42;;;;;;;;;;5000724;28;20029;-70
2024/02/28 06:24:43;;;;;;;47.42;18.67;;;;;;;;;;5014384;28;20026;-70
2024/02/28 06:27:29;;;;;;;46.38;18.08;;;;;;;;;;5014329;28;20026;-70
2024/02/28 06:30:16;;;;;;;60.35;16.88;;;;;;;;;;5014290;28;20443;-71
2024/02/28 06:33:02;;;;;;;44.05;16.08;;;;;;;;;;5012641;28;20061;-70
2024/02/28 06:35:48;;;;;;;57.08;18.60;;;;;;;;;;5014909;28;20021;-70
2024/02/28 06:38:34;;;;;;;57.50;19.50;;;;;;;;;;5013689;28;20376;-70
2024/02/28 06:41:20;;;;;;;49.65;16.58;;;;;;;;;;5023683;28;20040;-70
2024/02/28 06:44:07;;;;;;;58.40;20.08;;;;;;;;;;5013079;28;20066;-70
2024/02/28 06:46:53;;;;;;;52.97;19.35;;;;;;;;;;5030331;28;20484;-70
2024/02/28 06:49:38;;;;;;;55.72;17.55;;;;;;;;;;5032340;28;20328;-70
2024/02/28 06:52:24;;;;;;;61.15;18.27;;;;;;;;;;5014583;28;20402;-71
2024/02/28 06:55:10;;;;;;;57.25;18.75;;;;;;;;;;5031184;28;20029;-70
2024/02/28 06:57:56;;;;;;;58.55;18.50;;;;;;;;;;5031440;28;20025;-71
2024/02/28 07:00:42;;;;;;;58.08;20.40;;;;;;;;;;5033345;28;20029;-70
2024/02/28 07:03:28;;;;;;;55.72;20.73;;;;;;;;;;5032675;28;20484;-70
2024/02/28 07:06:14;;;;;;;67.20;20.98;;;;;;;;;;5034002;28;20033;-70
2024/02/28 07:08:59;;;;;;;56.38;18.02;;;;;;;;;;5033320;28;20025;-70
2024/02/28 07:11:45;;;;;;;64.35;20.98;;;;;;;;;;5033293;28;20018;-70
2024/02/28 07:14:31;;;;;;;57.70;18.75;;;;;;;;;;5033565;28;20432;-70
2024/02/28 07:17:17;;;;;;;70.35;20.20;;;;;;;;;;5032556;28;20068;-70
2024/02/28 07:20:03;;;;;;;59.65;18.77;;;;;;;;;;5005414;28;20460;-70
2024/02/28 07:22:48;;;;;;;60.40;21.65;;;;;;;;;;5031574;28;20490;-70
2024/02/28 07:25:34;;;;;;;62.53;19.73;;;;;;;;;;5019063;28;20025;-71
2024/02/28 07:28:19;;;;;;;60.65;18.77;;;;;;;;;;5033418;28;20026;-70
2024/02/28 07:31:05;;;;;;;61.40;19.15;;;;;;;;;;5032705;28;20026;-70
2024/02/28 07:33:51;;;;;;;61.72;19.85;;;;;;;;;;5033105;28;20029;-70
2024/02/28 07:36:37;;;;;;;50.13;19.35;;;;;;;;;;5032378;28;20033;-70
2024/02/28 07:39:24;;;;;;;64.78;18.98;;;;;;;;;;5018224;28;20075;-70
2024/02/28 07:42:09;;;;;;;64.57;19.60;;;;;;;;;;5033335;28;20502;-71
2024/02/28 07:44:56;;;;;;;68.60;21.00;;;;;;;;;;5032880;28;20032;-70
2024/02/28 07:47:42;;;;;;;64.60;21.40;;;;;;;;;;5032345;28;20109;-70
2024/02/28 07:50:28;;;;;;;61.03;19.83;;;;;;;;;;5032760;28;20041;-70
2024/02/28 07:53:15;;;;;;;64.72;21.05;;;;;;;;;;5020546;28;20029;-70
2024/02/28 07:56:00;;;;;;;64.25;20.75;;;;;;;;;;5036740;28;20034;-70
2024/02/28 07:58:46;;;;;;;63.50;23.27;;;;;;;;;;5022463;28;20025;-69
2024/02/28 08:01:32;;;;;;;71.18;22.00;;;;;;;;;;5036326;28;20079;-70
2024/02/28 08:04:18;;;;;;;55.85;18.48;;;;;;;;;;5036618;28;20442;-69
2024/02/28 08:07:06;;;;;;;69.35;21.63;;;;;;;;;;5036551;28;20026;-70
2024/02/28 08:09:52;;;;;;;62.40;21.45;;;;;;;;;;5036544;28;20025;-70
2024/02/28 08:12:38;;;;;;;73.10;21.52;;;;;;;;;;5035720;28;20026;-69
2024/02/28 08:15:23;;;;;;;71.13;23.48;;;;;;;;;;5036164;28;20029;-69
2024/02/28 08:18:11;;;;;;;63.42;21.20;;;;;;;;;;5036298;28;20108;-70
2024/02/28 08:20:57;;;;;;;68.82;24.33;;;;;;;;;;5035857;28;20491;-70
2024/02/28 08:23:42;;;;;;;69.47;22.80;;;;;;;;;;5023284;28;20046;-70
2024/02/28 08:26:28;;;;;;;72.85;22.88;;;;;;;;;;5026340;28;20060;-69
2024/02/28 08:29:14;;;;;;;67.43;22.42;;;;;;;;;;5024311;28;20026;-70
2024/02/28 08:31:59;;;;;;;75.35;20.75;;;;;;;;;;5019487;28;20037;-69
2024/02/28 08:34:49;;;;;;;69.22;22.15;;;;;;;;;;5022087;28;20018;-71
2024/02/28 08:37:34;;;;;;;74.95;25.90;;;;;;;;;;5020760;28;20033;-70
2024/02/28 08:40:20;;;;;;;77.53;23.45;;;;;;;;;;5035482;28;20061;-70
2024/02/28 08:43:05;;;;;;;74.00;23.02;;;;;;;;;;5022066;28;20027;-70
2024/02/28 08:45:51;;;;;;;66.25;21.08;;;;;;;;;;5034842;28;20480;-70
2024/02/28 08:48:37;;;;;;;73.97;23.25;;;;;;;;;;5021967;28;20029;-70
2024/02/28 08:51:23;;;;;;;72.70;21.88;;;;;;;;;;5035157;28;20040;-70
2024/02/28 08:54:08;;;;;;;69.97;22.63;;;;;;;;;;5021800;28;20026;-70
2024/02/28 08:56:54;;;;;;;69.22;24.02;;;;;;;;;;5035032;28;20057;-70
2024/02/28 08:59:40;;;;;;;69.55;22.27;;;;;;;;;;5021988;28;20025;-70
2024/02/28 09:02:25;;;;;;;68.05;25.13;;;;;;;;;;5035267;28;20021;-69
2024/02/28 09:05:11;;;;;;;65.72;22.02;;;;;;;;;;5020963;28;20321;-70
2024/02/28 09:07:57;;;;;;;65.10;20.83;;;;;;;;;;5035317;28;20028;-70
2024/02/28 09:10:43;;;;;;;69.55;22.42;;;;;;;;;;5021240;28;20041;-70
2024/02/28 09:13:30;;;;;;;67.35;21.23;;;;;;;;;;5034323;28;20049;-70
2024/02/28 09:16:15;;;;;;;66.53;24.38;;;;;;;;;;5035222;28;20026;-69
2024/02/28 09:19:02;;;;;;;67.40;23.20;;;;;;;;;;5034756;28;20592;-70
2024/02/28 09:21:48;;;;;;;72.50;24.52;;;;;;;;;;5021242;28;20083;-69
2024/02/28 09:24:36;;;;;;;65.55;22.35;;;;;;;;;;5034971;28;20024;-70
2024/02/28 09:27:21;;;;;;;57.78;21.02;;;;;;;;;;5034829;28;20071;-70
2024/02/28 09:30:07;;;;;;;69.70;20.67;;;;;;;;;;5034660;28;20025;-70
2024/02/28 09:32:53;;;;;;;69.78;21.20;;;;;;;;;;5034885;28;20022;-70
2024/02/28 09:35:38;;;;;;;66.97;21.38;;;;;;;;;;5034871;28;20013;-70
2024/02/28 09:38:24;;;;;;;68.70;22.55;;;;;;;;;;5033852;28;20040;-70
2024/02/28 09:41:14;;;;;;;63.80;19.40;;;;;;;;;;5018171;28;20025;-70
2024/02/28 09:44:02;;;;;;;60.60;19.83;;;;;;;;;;5020362;28;20030;-70
2024/02/28 09:46:51;;;;;;;76.28;22.05;;;;;;;;;;5018409;28;20583;-70
2024/02/28 09:49:37;;;;;;;65.40;20.90;;;;;;;;;;5019394;28;20051;-70
2024/02/28 09:52:22;;;;;;;49.70;17.60;;;;;;;;;;5034425;28;20079;-70
2024/02/28 09:55:08;;;;;;;58.80;18.13;;;;;;;;;;5033865;28;20105;-70
2024/02/28 09:57:54;;;;;;;55.42;18.67;;;;;;;;;;5034243;28;20499;-70
2024/02/28 10:00:42;;;;;;;58.63;22.20;;;;;;;;;;5019116;28;20022;-70
2024/02/28 10:03:28;;;;;;;62.42;19.80;;;;;;;;;;5019156;28;20030;-70
2024/02/28 10:06:15;;;;;;;52.13;16.85;;;;;;;;;;5018651;28;20434;-70
2024/02/28 10:09:01;;;;;;;62.03;19.95;;;;;;;;;;5018123;28;20084;-70
2024/02/28 10:11:47;;;;;;;58.17;20.48;;;;;;;;;;5033734;28;20108;-70
2024/02/28 10:14:33;;;;;;;64.30;17.70;;;;;;;;;;5033701;28;20500;-70
2024/02/28 10:17:18;;;;;;;71.72;20.30;;;;;;;;;;5033680;28;20026;-70
2024/02/28 10:20:04;;;;;;;49.83;19.92;;;;;;;;;;5033518;28;20025;-70
2024/02/28 10:22:52;;;;;;;52.75;20.40;;;;;;;;;;5033946;28;20017;-70
2024/02/28 10:25:43;;;;;;;64.45;18.85;;;;;;;;;;5019018;28;20033;-70
2024/02/28 10:28:28;;;;;;;62.95;18.27;;;;;;;;;;5018387;28;20033;-70
2024/02/28 10:31:14;;;;;;;63.08;18.75;;;;;;;;;;5033615;28;20032;-70
2024/02/28 10:34:02;;;;;;;62.40;19.60;;;;;;;;;;5033095;28;20032;-70
2024/02/28 10:36:47;;;;;;;56.72;17.92;;;;;;;;;;5033406;28;20036;-70
2024/02/28 10:39:34;;;;;;;59.35;18.50;;;;;;;;;;5033259;28;20017;-70
2024/02/28 10:42:22;;;;;;;50.95;18.65;;;;;;;;;;5033495;28;20055;-70
2024/02/28 10:45:10;;;;;;;51.85;18.00;;;;;;;;;;5033667;28;20479;-70
2024/02/28 10:47:56;;;;;;;58.33;17.30;;;;;;;;;;5005083;28;20035;-70
2024/02/28 10:50:44;;;;;;;67.95;18.13;;;;;;;;;;5033711;28;20406;-71
2024/02/28 10:53:41;;;;;;;54.60;17.38;;;;;;;;;;5018485;28;20032;-72
2024/02/28 10:56:28;;;;;;;55.70;15.43;;;;;;;;;;5019558;28;20398;-71
2024/02/28 10:59:14;;;;;;;61.65;16.40;;;;;;;;;;5033837;28;20033;-71
2024/02/28 11:02:00;;;;;;;55.78;17.67;;;;;;;;;;5033602;28;20029;-71
2024/02/28 11:04:45;;;;;;;57.78;16.15;;;;;;;;;;5019415;28;20527;-70
2024/02/28 11:07:31;;;;;;;49.95;16.50;;;;;;;;;;5019897;28;20487;-69
2024/02/28 11:10:16;;;;;;;48.30;16.60;;;;;;;;;;5033048;28;20033;-69
2024/02/28 11:13:02;;;;;;;51.50;18.17;;;;;;;;;;5032563;28;20022;-69
2024/02/28 11:15:48;;;;;;;51.65;16.50;;;;;;;;;;5019889;28;20075;-69
2024/02/28 11:18:33;;;;;;;57.38;17.42;;;;;;;;;;5033480;28;20104;-69
2024/02/28 11:21:19;;;;;;;57.58;18.48;;;;;;;;;;5033047;28;20025;-69
2024/02/28 11:24:05;;;;;;;52.58;15.88;;;;;;;;;;5031074;28;20556;-70
2024/02/28 11:26:52;;;;;;;44.58;14.50;;;;;;;;;;5031560;28;20036;-70
2024/02/28 11:29:38;;;;;;;54.15;16.13;;;;;;;;;;5021763;28;20443;-69
2024/02/28 11:32:26;;;;;;;57.42;18.30;;;;;;;;;;5036937;28;20052;-69
2024/02/28 11:35:13;;;;;;;56.55;16.67;;;;;;;;;;5035215;28;20013;-69
2024/02/28 11:37:59;;;;;;;47.83;15.07;;;;;;;;;;5033660;28;20402;-68
2024/02/28 11:40:50;;;;;;;47.80;15.25;;;;;;;;;;5026049;28;20033;-69
2024/02/28 11:43:36;;;;;;;41.67;15.02;;;;;;;;;;5020592;28;20076;-68
2024/02/28 11:46:23;;;;;;;39.45;15.30;;;;;;;;;;5018967;28;20025;-68
2024/02/28 11:49:09;;;;;;;49.55;16.70;;;;;;;;;;5001399;28;20029;-68
2024/02/28 11:51:55;;;;;;;44.25;15.05;;;;;;;;;;5016310;28;20038;-68
2024/02/28 11:54:40;;;;;;;50.83;16.45;;;;;;;;;;5020125;28;20440;-68
2024/02/28 11:57:26;;;;;;;43.33;15.55;;;;;;;;;;5019095;28;20084;-68
2024/02/28 12:00:12;;;;;;;46.55;15.50;;;;;;;;;;5016005;28;20109;-68
2024/02/28 12:03:07;;;;;;;37.33;12.57;;;;;;;;;;5014889;28;20426;-68
2024/02/28 12:05:53;;;;;;;42.17;15.02;;;;;;;;;;5016496;28;20117;-68
2024/02/28 12:08:38;;;;;;;35.63;12.25;;;;;;;;;;5017738;28;20357;-68
2024/02/28 12:11:24;;;;;;;45.95;15.55;;;;;;;;;;5036064;28;20107;-68
2024/02/28 12:14:12;;;;;;;37.13;13.73;;;;;;;;;;5035658;28;20505;-68
2024/02/28 12:16:58;;;;;;;30.75;13.38;;;;;;;;;;5036287;28;20025;-68
2024/02/28 12:19:43;;;;;;;39.50;13.25;;;;;;;;;;5035860;28;20022;-68
2024/02/28 12:22:29;;;;;;;43.15;13.25;;;;;;;;;;5035765;28;20487;-68
2024/02/28 12:25:15;;;;;;;49.63;13.40;;;;;;;;;;5035358;28;20064;-68
2024/02/28 12:28:01;;;;;;;42.25;14.85;;;;;;;;;;5021982;28;20033;-68
2024/02/28 12:30:47;;;;;;;55.45;16.98;;;;;;;;;;5016343;28;20122;-68
2024/02/28 12:33:32;;;;;;;37.50;14.25;;;;;;;;;;5019246;28;20053;-67
2024/02/28 12:36:18;;;;;;;51.17;18.52;;;;;;;;;;5024155;28;20024;-69
2024/02/28 12:39:05;;;;;;;55.10;16.45;;;;;;;;;;5028878;28;20025;-68
2024/02/28 12:41:51;;;;;;;58.58;17.20;;;;;;;;;;5016508;28;20053;-68
2024/02/28 12:44:38;;;;;;;54.45;18.77;;;;;;;;;;5033542;28;20029;-68
2024/02/28 12:47:24;;;;;;;59.13;19.60;;;;;;;;;;5035419;28;20079;-68
2024/02/28 12:50:10;;;;;;;56.53;17.80;;;;;;;;;;5034934;28;20038;-68
2024/02/28 12:52:56;;;;;;;54.50;19.40;;;;;;;;;;5033238;28;20044;-69
2024/02/28 12:55:42;;;;;;;66.45;20.05;;;;;;;;;;5035390;28;20022;-68
2024/02/28 12:58:28;;;;;;;66.85;21.67;;;;;;;;;;5034874;28;20026;-68
2024/02/28 13:01:13;;;;;;;63.47;19.05;;;;;;;;;;5035032;28;20102;-68
2024/02/28 13:03:59;;;;;;;70.60;21.27;;;;;;;;;;5033537;28;20022;-68
2024/02/28 13:06:45;;;;;;;69.15;22.33;;;;;;;;;;5034996;28;20550;-68
2024/02/28 13:09:31;;;;;;;73.63;22.92;;;;;;;;;;5034651;28;20044;-68
2024/02/28 13:12:17;;;;;;;66.88;19.52;;;;;;;;;;5033113;28;20035;-68
2024/02/28 13:15:03;;;;;;;82.43;25.02;;;;;;;;;;5034584;28;20014;-68
2024/02/28 13:17:49;;;;;;;66.30;22.45;;;;;;;;;;5033612;28;20025;-69
2024/02/28 13:20:35;;;;;;;70.38;21.80;;;;;;;;;;5034814;28;20108;-68
2024/02/28 13:23:21;;;;;;;69.18;20.30;;;;;;;;;;5034312;28;20025;-68
2024/02/28 13:26:07;;;;;;;67.35;21.38;;;;;;;;;;5034041;28;20044;-68
2024/02/28 13:28:52;;;;;;;75.43;19.15;;;;;;;;;;5019420;28;20403;-68
2024/02/28 13:31:38;;;;;;;66.43;19.60;;;;;;;;;;5034633;28;20029;-68
2024/02/28 13:34:23;;;;;;;69.45;21.52;;;;;;;;;;5032112;28;20075;-68
2024/02/28 13:37:09;;;;;;;72.93;21.00;;;;;;;;;;5034764;28;20021;-68
2024/02/28 13:39:56;;;;;;;70.63;21.42;;;;;;;;;;5034048;28;20571;-69
2024/02/28 13:42:42;;;;;;;75.40;20.55;;;;;;;;;;5033600;28;20037;-69
2024/02/28 13:45:27;;;;;;;65.03;19.08;;;;;;;;;;5033427;28;20030;-68
2024/02/28 13:48:17;;;;;;;74.88;19.83;;;;;;;;;;5033915;28;20025;-69
2024/02/28 13:51:04;;;;;;;73.95;21.02;;;;;;;;;;4997766;28;20521;-68
2024/02/28 13:53:52;;;;;;;66.43;20.88;;;;;;;;;;5014313;28;20024;-68
2024/02/28 13:56:38;;;;;;;85.05;21.45;;;;;;;;;;5014012;28;20037;-68
2024/02/28 13:59:23;;;;;;;66.72;19.63;;;;;;;;;;5012590;28;20022;-68
2024/02/28 14:02:10;;;;;;;75.35;22.77;;;;;;;;;;5014429;28;20104;-68
2024/02/28 14:04:55;;;;;;;75.13;22.05;;;;;;;;;;4997868;28;20578;-68
2024/02/28 14:07:41;;;;;;;66.70;16.95;;;;;;;;;;5012645;28;20400;-68
2024/02/28 14:10:27;;;;;;;82.35;21.25;;;;;;;;;;5028271;28;20029;-68
2024/02/28 14:13:15;;;;;;;71.47;19.08;;;;;;;;;;5033620;28;20022;-68
2024/02/28 14:16:01;;;;;;;67.43;17.33;;;;;;;;;;5032546;28;20451;-68
2024/02/28 14:18:47;;;;;;;107.32;32.50;;;;;;;;;;5034280;28;20029;-68
2024/02/28 14:21:33;;;;;;;76.07;20.45;;;;;;;;;;5033970;28;20055;-68
2024/02/28 14:24:19;;;;;;;83.97;22.63;;;;;;;;;;5033003;28;20082;-68
2024/02/28 14:27:05;;;;;;;82.80;21.90;;;;;;;;;;5033567;28;20406;-68
2024/02/28 14:29:51;;;;;;;79.82;24.02;;;;;;;;;;5034068;28;20021;-69
2024/02/28 14:32:37;;;;;;;80.43;24.63;;;;;;;;;;5034336;28;20052;-68
2024/02/28 14:35:23;;;;;;;85.68;25.67;;;;;;;;;;5034101;28;20025;-69
2024/02/28 14:38:09;;;;;;;87.00;24.15;;;;;;;;;;5032717;28;20032;-68
2024/02/28 14:40:55;;;;;;;75.10;25.30;;;;;;;;;;5033313;28;20032;-69
2024/02/28 14:43:40;;;;;;;84.88;24.08;;;;;;;;;;5033105;28;20025;-68
2024/02/28 14:46:26;;;;;;;82.65;22.02;;;;;;;;;;5033461;28;20029;-68
2024/02/28 14:49:12;;;;;;;91.68;22.50;;;;;;;;;;5033204;28;20025;-68
2024/02/28 14:51:59;;;;;;;59.85;18.75;;;;;;;;;;5032520;28;20119;-68
2024/02/28 14:54:46;;;;;;;67.65;19.70;;;;;;;;;;5033153;28;20022;-68
2024/02/28 14:57:31;;;;;;;61.65;17.42;;;;;;;;;;5033177;28;20398;-68
2024/02/28 15:00:19;;;;;;;63.25;19.10;;;;;;;;;;5032278;28;20087;-68
2024/02/28 15:03:04;;;;;;;67.55;20.05;;;;;;;;;;5036522;28;20021;-69
2024/02/28 15:05:50;;;;;;;55.92;17.55;;;;;;;;;;5035499;28;20080;-69
2024/02/28 15:08:36;;;;;;;55.05;15.70;;;;;;;;;;5036023;28;20484;-69
2024/02/28 15:11:22;;;;;;;57.90;14.70;;;;;;;;;;5036410;28;20398;-69
2024/02/28 15:14:07;;;;;;;51.92;17.05;;;;;;;;;;5036828;28;20100;-69
2024/02/28 15:16:53;;;;;;;48.50;14.73;;;;;;;;;;5037564;28;20032;-69
2024/02/28 15:19:39;;;;;;;40.90;14.40;;;;;;;;;;5036762;28;20025;-69
2024/02/28 15:22:24;;;;;;;42.63;13.15;;;;;;;;;;5037774;28;20017;-69
2024/02/28 15:25:10;;;;;;;43.10;15.40;;;;;;;;;;5037301;28;20017;-69
2024/02/28 15:27:56;;;;;;;34.85;15.15;;;;;;;;;;5008406;28;20036;-69
2024/02/28 15:30:42;;;;;;;32.72;11.93;;;;;;;;;;5023555;28;20021;-69
2024/02/28 15:33:28;;;;;;;37.20;12.63;;;;;;;;;;5037222;28;20562;-69
2024/02/28 15:36:14;;;;;;;38.50;13.90;;;;;;;;;;5034546;28;20163;-69
2024/02/28 15:39:00;;;;;;;42.92;12.52;;;;;;;;;;5036497;28;20406;-69
2024/02/28 15:41:47;;;;;;;39.90;14.43;;;;;;;;;;5036494;28;20122;-69
2024/02/28 15:44:34;;;;;;;43.00;14.18;;;;;;;;;;5036118;28;20025;-69
2024/02/28 15:47:19;;;;;;;42.75;14.82;;;;;;;;;;5020553;28;20100;-68
2024/02/28 15:50:07;;;;;;;40.10;14.27;;;;;;;;;;5035756;28;20032;-69
2024/02/28 15:52:53;;;;;;;40.78;14.77;;;;;;;;;;5037127;28;20037;-68
2024/02/28 15:55:39;;;;;;;48.05;14.10;;;;;;;;;;5036207;28;20021;-69
2024/02/28 15:58:26;;;;;;;39.75;14.63;;;;;;;;;;5036150;28;20029;-70
2024/02/28 16:01:12;;;;;;;39.97;14.43;;;;;;;;;;5020045;28;20075;-69
2024/02/28 16:03:58;;;;;;;43.10;15.93;;;;;;;;;;5035204;28;20561;-67